SCRN weather

Río Negro Airport
Río Negro, Los Lagos Region, Chile

Public forecast

Using degrees Celsius for public forecast. Weather courtesy of forecast.io.

METAR (pilot weather report)

Closest report is El Tepual Airport, 42.6 nm (78.8 km) NW. Retrieved 2019/04/21 17:00 UTC (41 minutes ago):

SCTE 211700Z 18007KT 9999 OVC015 11/07 Q1019 NOSIG

TAF (pilot weather forecast)

Closest forecast is El Tepual Airport, 42.6 nm (78.8 km) NW. Retrieved 2019/04/21 12:00 UTC (6 hours ago):

TAF SCTE 211024Z 2112/2212 20004KT 9999 OVC020 TX15/2119Z TN03/2211Z BECMG 2114/2116 17006KT BKN025 BECMG 2117/2119 SCT025 TEMPO 2121/2122 CAVOK BECMG 2200/2202 18004KT BECMG 2203/2205 VRB02KT 2000 BR BKN005 TEMPO 2204/2212 00000KT 0500FG OVC002